createdAt,value
2018-11-28T00:00:12.541Z,26.00
2018-11-28T00:02:40.934Z,24.93
2018-11-28T00:05:10.937Z,24.80
2018-11-28T00:07:39.642Z,25.07
2018-11-28T00:10:12.076Z,23.83
2018-11-28T00:12:41.503Z,24.17
2018-11-28T00:15:11.260Z,24.93
2018-11-28T00:17:39.704Z,22.87
2018-11-28T00:20:18.540Z,24.30
2018-11-28T00:22:47.091Z,25.13
2018-11-28T00:25:16.111Z,22.87
2018-11-28T00:27:44.899Z,23.53
2018-11-28T00:30:22.297Z,24.03
2018-11-28T00:32:51.143Z,23.83
2018-11-28T00:35:20.696Z,24.60
2018-11-28T00:37:49.422Z,24.07
2018-11-28T00:40:19.692Z,23.33
2018-11-28T00:42:48.131Z,23.43
2018-11-28T00:45:18.984Z,22.57
2018-11-28T00:47:47.476Z,22.80
2018-11-28T00:50:19.050Z,23.27
2018-11-28T00:52:47.449Z,24.60
2018-11-28T00:55:17.036Z,23.47
2018-11-28T00:57:46.045Z,23.37
2018-11-28T01:00:18.996Z,23.77
2018-11-28T01:02:48.288Z,24.57
2018-11-28T01:05:17.048Z,22.67
2018-11-28T01:07:46.588Z,23.80
2018-11-28T01:10:16.244Z,23.83
2018-11-28T01:12:45.257Z,23.43
2018-11-28T01:15:15.230Z,23.53
2018-11-28T01:17:44.420Z,24.27
2018-11-28T01:20:14.449Z,22.57
2018-11-28T01:22:42.862Z,24.67
2018-11-28T01:25:12.646Z,24.93
2018-11-28T01:27:41.592Z,24.47
2018-11-28T01:30:15.987Z,24.77
2018-11-28T01:32:44.946Z,23.47
2018-11-28T01:35:15.439Z,25.73
2018-11-28T01:37:44.225Z,23.70
2018-11-28T01:40:14.986Z,24.67
2018-11-28T01:42:43.811Z,23.73
2018-11-28T01:45:15.647Z,22.50
2018-11-28T01:47:44.319Z,24.53
2018-11-28T01:50:14.027Z,22.97
2018-11-28T01:52:42.405Z,24.87
2018-11-28T01:55:12.920Z,24.63
2018-11-28T01:57:41.686Z,25.03
2018-11-28T02:00:15.729Z,23.73
2018-11-28T02:02:44.453Z,22.67
2018-11-28T02:05:13.103Z,23.80
2018-11-28T02:07:41.865Z,25.07
2018-11-28T02:10:14.325Z,22.93
2018-11-28T02:12:43.621Z,23.70
2018-11-28T02:15:20.606Z,21.63
2018-11-28T02:17:48.987Z,24.20
2018-11-28T02:20:18.239Z,23.20
2018-11-28T02:22:47.189Z,21.73
2018-11-28T02:25:18.041Z,22.70
2018-11-28T02:27:47.767Z,23.73
2018-11-28T02:30:18.996Z,22.97
2018-11-28T02:32:48.446Z,22.90
2018-11-28T02:35:17.915Z,22.77
2018-11-28T02:37:46.689Z,22.53
2018-11-28T02:40:16.178Z,22.60
2018-11-28T02:42:44.987Z,22.43
2018-11-28T02:45:16.404Z,22.00
2018-11-28T02:47:44.836Z,22.23
2018-11-28T02:50:13.207Z,22.67
2018-11-28T02:52:41.588Z,23.07
2018-11-28T02:55:13.098Z,23.00
2018-11-28T02:57:42.701Z,21.80
2018-11-28T03:00:13.669Z,23.37
2018-11-28T03:02:42.383Z,23.17
2018-11-28T03:05:12.539Z,23.53
2018-11-28T03:07:41.049Z,21.50
2018-11-28T03:10:18.120Z,21.63
2018-11-28T03:12:46.519Z,22.80
2018-11-28T03:15:28.064Z,22.43
2018-11-28T03:17:56.570Z,23.17
2018-11-28T03:20:24.974Z,22.53
2018-11-28T03:22:53.335Z,21.43
2018-11-28T03:25:22.611Z,23.30
2018-11-28T03:27:51.253Z,22.30
2018-11-28T03:30:19.662Z,21.37
2018-11-28T03:32:48.205Z,21.47
2018-11-28T03:35:16.851Z,22.30
2018-11-28T03:37:45.899Z,21.93
2018-11-28T03:40:14.649Z,21.83
2018-11-28T03:42:43.037Z,23.17
2018-11-28T03:45:12.611Z,22.40
2018-11-28T03:47:41.651Z,22.57
2018-11-28T03:50:11.467Z,21.70
2018-11-28T03:52:40.444Z,21.03
2018-11-28T03:55:10.581Z,20.67
2018-11-28T03:57:39.119Z,21.37
2018-11-28T04:00:11.549Z,20.30
2018-11-28T04:02:39.971Z,21.50
2018-11-28T04:05:08.796Z,20.40
2018-11-28T04:07:37.176Z,20.97
2018-11-28T04:10:08.376Z,21.10
2018-11-28T04:12:36.990Z,20.00
2018-11-28T04:15:13.808Z,21.70
2018-11-28T04:17:42.530Z,20.53
2018-11-28T04:20:13.616Z,19.70
2018-11-28T04:22:41.992Z,21.70
2018-11-28T04:25:11.300Z,20.87
2018-11-28T04:27:39.834Z,20.60
2018-11-28T04:30:11.419Z,20.47
2018-11-28T04:32:39.793Z,19.60
2018-11-28T04:35:09.642Z,22.03
2018-11-28T04:37:38.023Z,21.10
2018-11-28T04:40:11.222Z,21.03
2018-11-28T04:42:39.945Z,21.00
2018-11-28T04:45:10.986Z,20.87
2018-11-28T04:47:39.419Z,20.07
2018-11-28T04:50:09.829Z,21.30
2018-11-28T04:52:38.682Z,19.43
2018-11-28T04:55:12.209Z,21.03
2018-11-28T04:57:41.186Z,21.20
2018-11-28T05:00:17.999Z,20.10
2018-11-28T05:02:46.831Z,20.77
2018-11-28T05:05:22.941Z,19.90
2018-11-28T05:07:52.527Z,20.80
2018-11-28T05:10:25.038Z,21.10
2018-11-28T05:12:54.097Z,21.97
2018-11-28T05:15:25.088Z,19.27
2018-11-28T05:17:54.245Z,20.57
2018-11-28T05:20:27.745Z,18.90
2018-11-28T05:22:56.125Z,19.30
2018-11-28T05:25:25.927Z,20.17
2018-11-28T05:27:55.501Z,20.10
2018-11-28T05:30:25.441Z,21.43
2018-11-28T05:32:53.872Z,19.80
2018-11-28T05:35:29.739Z,20.37
2018-11-28T05:37:58.283Z,19.93
2018-11-28T05:40:27.734Z,19.73
2018-11-28T05:42:56.678Z,19.77
2018-11-28T05:45:25.179Z,19.63
2018-11-28T05:47:53.575Z,20.20
2018-11-28T05:50:22.531Z,20.27
2018-11-28T05:52:51.476Z,20.30
2018-11-28T05:55:21.336Z,20.07
2018-11-28T05:57:49.815Z,19.03
2018-11-28T06:00:27.847Z,19.27
2018-11-28T06:02:56.250Z,20.93
2018-11-28T06:05:24.679Z,20.63
2018-11-28T06:07:53.162Z,20.63
2018-11-28T06:10:21.899Z,19.60
2018-11-28T06:12:50.420Z,20.47
2018-11-28T06:15:19.024Z,19.93
2018-11-28T06:17:47.456Z,20.27
2018-11-28T06:20:16.272Z,19.50
2018-11-28T06:22:45.414Z,21.63
2018-11-28T06:25:16.203Z,19.10
2018-11-28T06:27:44.335Z,20.30
2018-11-28T06:30:14.214Z,20.37
2018-11-28T06:32:42.652Z,20.17
2018-11-28T06:35:11.572Z,20.00
2018-11-28T06:37:40.471Z,19.27
2018-11-28T06:40:13.714Z,20.50
2018-11-28T06:42:42.353Z,18.60
2018-11-28T06:45:20.236Z,20.23
2018-11-28T06:47:49.089Z,19.67
2018-11-28T06:50:18.597Z,20.50
2018-11-28T06:52:48.715Z,20.03
2018-11-28T06:55:18.475Z,19.23
2018-11-28T06:57:46.869Z,19.03
2018-11-28T07:00:21.491Z,19.73
2018-11-28T07:02:51.985Z,17.60
2018-11-28T07:05:21.090Z,18.67
2018-11-28T07:07:49.776Z,18.50
2018-11-28T07:10:19.611Z,16.60
2018-11-28T07:12:48.077Z,16.77
2018-11-28T07:15:17.538Z,17.47
2018-11-28T07:17:46.670Z,18.20
2018-11-28T07:20:16.311Z,17.63
2018-11-28T07:22:45.725Z,17.60
2018-11-28T07:25:16.504Z,17.07
2018-11-28T07:27:46.457Z,16.10
2018-11-28T07:30:18.771Z,17.50
2018-11-28T07:32:47.920Z,15.87
2018-11-28T07:35:16.343Z,16.07
2018-11-28T07:37:44.873Z,17.07
2018-11-28T07:40:16.335Z,16.70
2018-11-28T07:42:53.401Z,16.37
2018-11-28T07:45:21.836Z,15.93
2018-11-28T07:47:50.562Z,16.43
2018-11-28T07:50:19.015Z,16.20
2018-11-28T07:52:47.483Z,15.67
2018-11-28T07:55:15.909Z,15.53
2018-11-28T07:57:44.383Z,15.23
2018-11-28T08:00:14.827Z,16.53
2018-11-28T08:02:43.857Z,15.33
2018-11-28T08:05:12.683Z,16.53
2018-11-28T08:07:41.917Z,15.37
2018-11-28T08:10:16.354Z,15.17
2018-11-28T08:12:44.738Z,15.93
2018-11-28T08:15:13.243Z,15.77
2018-11-28T08:17:42.052Z,14.50
2018-11-28T08:20:10.518Z,15.20
2018-11-28T08:22:39.665Z,15.60
2018-11-28T08:25:09.828Z,14.80
2018-11-28T08:27:38.260Z,14.27
2018-11-28T08:30:12.889Z,15.50
2018-11-28T08:32:41.718Z,14.60
2018-11-28T08:35:10.843Z,15.87
2018-11-28T08:37:39.210Z,15.40
2018-11-28T08:40:12.896Z,14.97
2018-11-28T08:42:41.495Z,14.53
2018-11-28T08:45:15.621Z,14.50
2018-11-28T08:47:45.090Z,14.57
2018-11-28T08:50:46.408Z,15.13
2018-11-28T08:53:14.924Z,14.60
2018-11-28T08:55:43.433Z,14.23
2018-11-28T08:58:11.817Z,13.97
2018-11-28T09:00:40.382Z,15.00
2018-11-28T09:03:08.852Z,14.63
2018-11-28T09:05:37.266Z,14.47
2018-11-28T09:08:05.644Z,15.53
2018-11-28T09:10:34.096Z,15.23
2018-11-28T09:13:04.314Z,14.07
2018-11-28T09:15:31.670Z,14.17
2018-11-28T09:18:00.050Z,13.93
2018-11-28T09:20:28.426Z,14.80
2018-11-28T09:22:56.946Z,13.87
2018-11-28T09:25:25.396Z,13.87
2018-11-28T09:27:57.996Z,13.93
2018-11-28T09:30:26.452Z,13.70
2018-11-28T09:32:54.825Z,14.20
2018-11-28T09:35:23.595Z,13.57
2018-11-28T09:37:52.063Z,14.47
2018-11-28T09:40:24.501Z,14.03
2018-11-28T09:42:55.042Z,13.70
2018-11-28T09:45:23.635Z,12.97
2018-11-28T09:47:52.065Z,13.30
2018-11-28T09:50:21.540Z,12.97
2018-11-28T09:52:50.204Z,12.83
2018-11-28T09:55:20.155Z,13.13
2018-11-28T09:57:48.771Z,14.60
2018-11-28T10:00:18.057Z,13.87
2018-11-28T10:02:46.812Z,13.97
2018-11-28T10:05:26.766Z,13.80
2018-11-28T10:07:55.280Z,13.73
2018-11-28T10:10:23.685Z,14.73
2018-11-28T10:12:52.600Z,14.60
2018-11-28T10:15:22.348Z,13.70
2018-11-28T10:17:50.921Z,13.33
2018-11-28T10:20:20.053Z,19.43
2018-11-28T10:22:49.901Z,14.43
2018-11-28T10:25:22.343Z,14.40
2018-11-28T10:27:56.496Z,14.00
2018-11-28T10:30:27.134Z,14.10
2018-11-28T10:32:55.956Z,14.13
2018-11-28T10:35:24.394Z,15.97
2018-11-28T10:37:53.186Z,15.00
2018-11-28T10:40:22.888Z,13.63
2018-11-28T10:42:53.469Z,14.33
2018-11-28T10:45:23.972Z,14.40
2018-11-28T10:47:52.502Z,15.20
2018-11-28T10:50:20.919Z,14.27
2018-11-28T10:52:49.673Z,14.30
2018-11-28T10:55:23.431Z,14.50
2018-11-28T10:57:52.085Z,15.23
2018-11-28T11:00:27.675Z,12.70
2018-11-28T11:03:01.433Z,13.07
2018-11-28T11:05:35.363Z,14.33
2018-11-28T11:08:09.051Z,13.90
2018-11-28T11:10:43.551Z,12.83
2018-11-28T11:13:16.818Z,14.00
2018-11-28T11:15:50.774Z,13.27
2018-11-28T11:18:19.147Z,13.63
2018-11-28T11:20:47.547Z,14.93
2018-11-28T11:23:15.995Z,14.13
2018-11-28T11:25:44.717Z,13.30
2018-11-28T11:28:13.163Z,13.97
2018-11-28T11:30:41.715Z,13.77
2018-11-28T11:33:10.607Z,13.00
2018-11-28T11:35:39.391Z,14.97
2018-11-28T11:38:08.147Z,14.17
2018-11-28T11:40:36.955Z,13.43
2018-11-28T11:43:06.185Z,13.70
2018-11-28T11:45:34.630Z,26.83
2018-11-28T11:48:03.087Z,14.43
2018-11-28T11:50:32.275Z,13.53
2018-11-28T11:53:00.657Z,13.80
2018-11-28T11:55:29.383Z,23.27
2018-11-28T11:57:58.479Z,14.57
2018-11-28T12:00:27.923Z,14.40
2018-11-28T12:03:03.592Z,14.57
2018-11-28T12:05:31.952Z,13.53
2018-11-28T12:08:00.320Z,14.83
2018-11-28T12:10:29.076Z,15.60
2018-11-28T12:12:57.450Z,13.33
2018-11-28T12:15:25.845Z,13.80
2018-11-28T12:17:54.335Z,13.47
2018-11-28T12:20:26.400Z,13.67
2018-11-28T12:22:54.803Z,14.63
2018-11-28T12:25:23.760Z,15.40
2018-11-28T12:27:52.266Z,14.27
2018-11-28T12:30:20.644Z,13.57
2018-11-28T12:32:49.054Z,14.43
2018-11-28T12:35:18.399Z,14.80
2018-11-28T12:37:47.216Z,13.97
2018-11-28T12:40:16.611Z,14.63
2018-11-28T12:42:49.675Z,13.50
2018-11-28T12:45:19.044Z,13.60
2018-11-28T12:47:48.042Z,13.97
2018-11-28T12:50:21.219Z,15.43
2018-11-28T12:52:50.047Z,14.63
2018-11-28T12:55:19.674Z,13.20
2018-11-28T12:57:48.752Z,13.87
2018-11-28T13:00:18.980Z,13.67
2018-11-28T13:02:47.484Z,13.53
2018-11-28T13:05:18.090Z,13.07
2018-11-28T13:07:46.530Z,13.83
2018-11-28T13:10:31.756Z,13.53
2018-11-28T13:13:00.159Z,13.60
2018-11-28T13:15:28.953Z,13.20
2018-11-28T13:17:57.346Z,12.80
2018-11-28T13:20:25.836Z,14.00
2018-11-28T13:22:55.459Z,13.00
2018-11-28T13:25:25.777Z,13.27
2018-11-28T13:27:54.350Z,15.20
2018-11-28T13:30:25.610Z,13.67
2018-11-28T13:32:55.309Z,12.07
2018-11-28T13:35:25.596Z,11.90
2018-11-28T13:37:55.372Z,11.50
2018-11-28T13:40:24.091Z,10.87
2018-11-28T13:42:52.723Z,11.87
2018-11-28T13:45:22.564Z,12.43
2018-11-28T13:47:52.077Z,12.90
2018-11-28T13:50:21.019Z,12.23
2018-11-28T13:52:49.986Z,12.00
2018-11-28T13:55:38.512Z,12.33
2018-11-28T13:57:58.389Z,14.23
2018-11-28T14:00:26.861Z,13.70
2018-11-28T14:02:56.534Z,13.50
2018-11-28T14:05:24.921Z,12.77
2018-11-28T14:07:53.400Z,12.80
2018-11-28T14:10:22.101Z,13.17
2018-11-28T14:12:50.898Z,12.73
2018-11-28T14:15:22.128Z,12.90
2018-11-28T14:17:55.024Z,12.97
2018-11-28T14:20:23.589Z,13.13
2018-11-28T14:22:52.243Z,13.50
2018-11-28T14:25:20.625Z,14.40
2018-11-28T14:27:49.026Z,13.80
2018-11-28T14:30:19.609Z,13.83
2018-11-28T14:32:48.249Z,14.10
2018-11-28T14:35:16.774Z,13.73
2018-11-28T14:37:45.555Z,12.90
2018-11-28T14:40:15.418Z,13.77
2018-11-28T14:42:44.906Z,14.77
2018-11-28T14:45:15.429Z,14.00
2018-11-28T14:47:44.328Z,13.50
2018-11-28T14:50:18.472Z,13.37
2018-11-28T14:52:47.120Z,14.50
2018-11-28T14:55:18.873Z,14.53
2018-11-28T14:57:47.432Z,13.50
2018-11-28T15:00:20.722Z,15.70
2018-11-28T15:02:52.878Z,15.70
2018-11-28T15:05:32.830Z,15.40
2018-11-28T15:08:06.866Z,14.03
2018-11-28T15:10:42.793Z,15.13
2018-11-28T15:13:11.275Z,14.70
2018-11-28T15:15:39.692Z,13.67
2018-11-28T15:18:08.096Z,14.73
2018-11-28T15:20:36.719Z,15.00
2018-11-28T15:23:05.621Z,13.83
2018-11-28T15:25:34.103Z,13.90
2018-11-28T15:28:02.532Z,14.33
2018-11-28T15:30:31.072Z,15.20
2018-11-28T15:32:59.452Z,14.37
2018-11-28T15:35:28.044Z,14.63
2018-11-28T15:37:56.433Z,15.30
2018-11-28T15:40:24.855Z,16.27
2018-11-28T15:42:53.283Z,15.97
2018-11-28T15:45:21.709Z,14.57
2018-11-28T15:47:50.213Z,14.87
2018-11-28T15:50:18.798Z,15.67
2018-11-28T15:52:47.273Z,16.17
2018-11-28T15:55:15.747Z,16.23
2018-11-28T15:57:44.137Z,15.87
2018-11-28T16:00:17.361Z,15.10
2018-11-28T16:02:45.899Z,16.13
2018-11-28T16:05:14.349Z,15.87
2018-11-28T16:07:42.935Z,15.70
2018-11-28T16:10:17.995Z,17.10
2018-11-28T16:12:47.775Z,16.63
2018-11-28T16:15:19.565Z,16.10
2018-11-28T16:17:47.989Z,16.80
2018-11-28T16:20:16.919Z,15.53
2018-11-28T16:22:45.764Z,17.37
2018-11-28T16:25:14.247Z,17.90
2018-11-28T16:27:42.722Z,16.47
2018-11-28T16:30:14.392Z,17.70
2018-11-28T16:32:44.895Z,19.00
2018-11-28T16:35:14.438Z,17.23
2018-11-28T16:37:42.913Z,17.43
2018-11-28T16:40:13.674Z,17.53
2018-11-28T16:42:42.143Z,17.97
2018-11-28T16:45:25.438Z,17.40
2018-11-28T16:47:53.893Z,17.07
2018-11-28T16:50:22.311Z,17.40
2018-11-28T16:52:50.730Z,19.60
2018-11-28T16:55:19.235Z,18.03
2018-11-28T16:57:49.178Z,18.63
2018-11-28T17:00:20.132Z,17.33
2018-11-28T17:02:48.636Z,15.93
2018-11-28T17:05:19.067Z,17.37
2018-11-28T17:07:47.894Z,17.17
2018-11-28T17:10:26.248Z,16.47
2018-11-28T17:12:55.404Z,15.33
2018-11-28T17:15:23.866Z,16.77
2018-11-28T17:17:52.638Z,15.33
2018-11-28T17:20:22.344Z,15.27
2018-11-28T17:22:52.254Z,15.67
2018-11-28T17:25:24.085Z,15.60
2018-11-28T17:27:53.160Z,15.80
2018-11-28T17:30:23.028Z,15.87
2018-11-28T17:32:51.680Z,17.17
2018-11-28T17:35:20.191Z,16.97
2018-11-28T17:37:48.577Z,18.73
2018-11-28T17:40:19.482Z,18.93
2018-11-28T17:42:49.320Z,17.87
2018-11-28T17:45:18.444Z,17.17
2018-11-28T17:47:46.976Z,15.93
2018-11-28T17:50:18.557Z,15.73
2018-11-28T17:53:01.375Z,16.93
2018-11-28T17:55:35.828Z,15.77
2018-11-28T17:58:04.776Z,16.40
2018-11-28T18:00:33.369Z,16.50
2018-11-28T18:03:02.016Z,16.67
2018-11-28T18:05:30.716Z,15.73
2018-11-28T18:07:59.105Z,16.87
2018-11-28T18:10:27.572Z,17.63
2018-11-28T18:13:17.527Z,16.37
2018-11-28T18:15:48.457Z,15.13
2018-11-28T18:18:20.061Z,16.60
2018-11-28T18:20:50.359Z,15.67
2018-11-28T18:23:17.103Z,15.70
2018-11-28T18:25:46.270Z,15.93
2018-11-28T18:28:14.773Z,15.53
2018-11-28T18:30:43.585Z,15.93
2018-11-28T18:33:13.432Z,16.23
2018-11-28T18:35:41.894Z,15.43
2018-11-28T18:38:10.429Z,16.73
2018-11-28T18:40:39.285Z,16.70
2018-11-28T18:43:08.564Z,16.67
2018-11-28T18:45:38.800Z,15.93
2018-11-28T18:48:07.330Z,15.77
2018-11-28T18:50:36.109Z,15.47
2018-11-28T18:53:04.510Z,16.27
2018-11-28T18:55:32.939Z,15.97
2018-11-28T18:58:01.768Z,15.57
2018-11-28T19:00:30.382Z,16.70
2018-11-28T19:02:58.850Z,15.57
2018-11-28T19:05:27.443Z,16.50
2018-11-28T19:07:55.861Z,16.97
2018-11-28T19:10:26.539Z,16.40
2018-11-28T19:12:54.072Z,16.87
2018-11-28T19:15:25.631Z,16.43
2018-11-28T19:17:54.815Z,16.77
2018-11-28T19:20:24.157Z,18.07
2018-11-28T19:22:53.567Z,17.50
2018-11-28T19:25:23.830Z,17.40
2018-11-28T19:27:52.411Z,18.00
2018-11-28T19:30:31.085Z,17.47
2018-11-28T19:32:57.014Z,18.03
2018-11-28T19:35:25.430Z,17.40
2018-11-28T19:37:53.875Z,17.53
2018-11-28T19:40:25.309Z,17.87
2018-11-28T19:42:53.803Z,17.67
2018-11-28T19:45:22.873Z,17.53
2018-11-28T19:47:51.226Z,17.10
2018-11-28T19:50:22.457Z,18.17
2018-11-28T19:52:50.913Z,16.73
2018-11-28T19:55:19.691Z,17.07
2018-11-28T19:57:48.127Z,16.63
2018-11-28T20:00:17.925Z,16.60
2018-11-28T20:02:46.857Z,17.33
2018-11-28T20:05:15.351Z,16.63
2018-11-28T20:07:46.269Z,17.17
2018-11-28T20:10:16.463Z,17.90
2018-11-28T20:12:45.026Z,15.57
2018-11-28T20:15:15.790Z,15.97
2018-11-28T20:17:44.229Z,17.63
2018-11-28T20:20:13.785Z,16.23
2018-11-28T20:22:42.369Z,15.77
2018-11-28T20:25:13.949Z,15.73
2018-11-28T20:27:43.108Z,16.80
2018-11-28T20:30:23.968Z,16.17
2018-11-28T20:32:52.408Z,17.20
2018-11-28T20:35:20.808Z,17.60
2018-11-28T20:37:49.255Z,17.07
2018-11-28T20:40:18.414Z,16.83
2018-11-28T20:42:48.571Z,17.37
2018-11-28T20:45:17.432Z,16.50
2018-11-28T20:47:45.830Z,17.93
2018-11-28T20:50:17.178Z,17.20
2018-11-28T20:52:54.875Z,17.57
2018-11-28T20:55:19.370Z,17.43
2018-11-28T20:57:48.123Z,17.20
2018-11-28T21:00:17.879Z,18.40
2018-11-28T21:02:46.303Z,16.50
2018-11-28T21:05:14.803Z,17.23
2018-11-28T21:07:43.226Z,17.93
2018-11-28T21:10:19.835Z,18.67
2018-11-28T21:12:48.397Z,17.23
2018-11-28T21:15:17.166Z,17.67
2018-11-28T21:17:46.377Z,18.33
2018-11-28T21:20:16.382Z,18.63
2018-11-28T21:22:49.665Z,18.00
2018-11-28T21:25:18.198Z,16.67
2018-11-28T21:27:47.017Z,17.00
2018-11-28T21:30:16.523Z,17.30
2018-11-28T21:32:45.381Z,18.07
2018-11-28T21:35:15.154Z,17.03
2018-11-28T21:37:43.571Z,18.27
2018-11-28T21:40:12.606Z,16.93
2018-11-28T21:42:41.088Z,18.17
2018-11-28T21:45:13.687Z,19.50
2018-11-28T21:47:42.181Z,17.90
2018-11-28T21:50:16.925Z,17.70
2018-11-28T21:52:45.393Z,17.37
2018-11-28T21:55:18.886Z,18.30
2018-11-28T21:57:47.765Z,16.87
2018-11-28T22:00:18.281Z,17.37
2018-11-28T22:02:46.663Z,17.70
2018-11-28T22:05:15.813Z,17.33
2018-11-28T22:07:44.445Z,17.87
2018-11-28T22:10:15.460Z,18.47
2018-11-28T22:12:44.268Z,17.83
2018-11-28T22:15:13.747Z,18.27
2018-11-28T22:17:43.899Z,18.53
2018-11-28T22:20:13.507Z,17.80
2018-11-28T22:22:42.157Z,18.13
2018-11-28T22:25:12.837Z,19.10
2018-11-28T22:27:41.638Z,18.40
2018-11-28T22:30:17.841Z,17.13
2018-11-28T22:32:46.290Z,17.63
2018-11-28T22:35:14.804Z,18.47
2018-11-28T22:37:43.318Z,17.77
2018-11-28T22:40:13.958Z,18.33
2018-11-28T22:42:42.524Z,18.53
2018-11-28T22:45:19.166Z,20.37
2018-11-28T22:47:47.783Z,18.67
2018-11-28T22:50:16.253Z,19.47
2018-11-28T22:52:44.672Z,20.17
2018-11-28T22:55:15.875Z,18.37
2018-11-28T22:57:45.118Z,19.27
2018-11-28T23:00:16.864Z,18.40
2018-11-28T23:02:55.593Z,17.70
2018-11-28T23:05:26.510Z,18.00
2018-11-28T23:07:55.895Z,17.70
2018-11-28T23:10:24.701Z,17.87
2018-11-28T23:12:53.110Z,17.77
2018-11-28T23:15:22.021Z,17.77
2018-11-28T23:17:55.023Z,18.83
2018-11-28T23:20:19.243Z,18.83
2018-11-28T23:22:47.831Z,17.43
2018-11-28T23:25:16.295Z,16.73
2018-11-28T23:27:44.769Z,17.33
2018-11-28T23:30:14.413Z,17.37
2018-11-28T23:32:42.866Z,16.70
2018-11-28T23:35:12.114Z,17.17
2018-11-28T23:37:42.593Z,18.37
2018-11-28T23:40:14.523Z,17.73
2018-11-28T23:42:42.959Z,18.23
2018-11-28T23:45:12.541Z,17.80
2018-11-28T23:47:42.077Z,17.47
2018-11-28T23:50:13.399Z,16.33
2018-11-28T23:52:42.023Z,16.27
2018-11-28T23:55:15.126Z,16.80
2018-11-28T23:57:43.737Z,17.27
